createdAt,value
2022-10-02T00:00:08.997Z,18.82
2022-10-02T00:02:44.208Z,18.79
2022-10-02T00:05:35.698Z,18.79
2022-10-02T00:08:02.486Z,18.78
2022-10-02T00:10:35.789Z,18.78
2022-10-02T00:13:06.558Z,18.74
2022-10-02T00:15:37.385Z,18.71
2022-10-02T00:18:14.298Z,18.68
2022-10-02T00:21:01.688Z,18.64
2022-10-02T00:23:37.305Z,18.64
2022-10-02T00:26:10.949Z,18.65
2022-10-02T00:29:02.348Z,18.64
2022-10-02T00:31:51.144Z,18.58
2022-10-02T00:34:41.993Z,18.58
2022-10-02T00:37:27.061Z,18.57
2022-10-02T00:40:26.514Z,18.57
2022-10-02T00:43:19.368Z,18.57
2022-10-02T00:46:13.685Z,18.54
2022-10-02T00:48:49.444Z,18.56
2022-10-02T00:51:44.089Z,18.53
2022-10-02T00:54:44.777Z,18.51
2022-10-02T00:57:42.434Z,18.51
2022-10-02T01:00:14.360Z,18.54
2022-10-02T01:02:59.593Z,18.54
2022-10-02T01:05:27.436Z,18.54
2022-10-02T01:07:55.443Z,18.53
2022-10-02T01:10:25.642Z,18.48
2022-10-02T01:12:54.202Z,18.46
2022-10-02T01:15:33.465Z,18.40
2022-10-02T01:18:02.222Z,18.37
2022-10-02T01:20:41.772Z,18.40
2022-10-02T01:23:22.541Z,18.40
2022-10-02T01:25:49.218Z,18.37
2022-10-02T01:28:15.960Z,18.40
2022-10-02T01:30:48.158Z,18.38
2022-10-02T01:33:17.184Z,18.33
2022-10-02T01:35:44.339Z,18.37
2022-10-02T01:38:18.525Z,18.36
2022-10-02T01:40:45.298Z,18.36
2022-10-02T01:43:19.704Z,18.36
2022-10-02T01:45:55.096Z,18.34
2022-10-02T01:48:41.010Z,18.32
2022-10-02T01:51:22.881Z,18.29
2022-10-02T01:54:11.355Z,18.27
2022-10-02T01:56:59.510Z,18.23
2022-10-02T02:00:00.008Z,18.22
2022-10-02T02:02:46.606Z,18.19
2022-10-02T02:05:57.433Z,18.14
2022-10-02T02:08:40.037Z,18.16
2022-10-02T02:11:16.560Z,18.12
2022-10-02T02:13:52.084Z,18.05
2022-10-02T02:16:21.410Z,18.06
2022-10-02T02:19:04.167Z,18.06
2022-10-02T02:21:56.681Z,18.05
2022-10-02T02:24:34.123Z,18.05
2022-10-02T02:27:04.309Z,18.03
2022-10-02T02:29:34.439Z,18.02
2022-10-02T02:32:05.912Z,17.96
2022-10-02T02:34:39.332Z,17.93
2022-10-02T02:37:16.714Z,17.92
2022-10-02T02:39:52.680Z,17.91
2022-10-02T02:42:26.385Z,17.89
2022-10-02T02:45:00.211Z,17.91
2022-10-02T02:47:33.033Z,17.93
2022-10-02T02:50:05.528Z,17.89
2022-10-02T02:52:38.519Z,17.95
2022-10-02T02:55:07.726Z,17.93
2022-10-02T02:57:44.693Z,17.91
2022-10-02T03:00:15.643Z,17.88
2022-10-02T03:02:42.284Z,17.89
2022-10-02T03:05:14.950Z,17.86
2022-10-02T03:07:55.626Z,17.83
2022-10-02T03:10:32.582Z,17.82
2022-10-02T03:13:32.340Z,17.82
2022-10-02T03:16:33.262Z,17.82
2022-10-02T03:19:37.900Z,17.85
2022-10-02T03:22:41.272Z,17.81
2022-10-02T03:25:40.338Z,17.81
2022-10-02T03:28:14.349Z,17.79
2022-10-02T03:30:43.291Z,17.78
2022-10-02T03:33:14.045Z,17.75
2022-10-02T03:35:42.156Z,17.71
2022-10-02T03:38:13.287Z,17.72
2022-10-02T03:40:40.757Z,17.74
2022-10-02T03:43:07.747Z,17.72
2022-10-02T03:48:21.275Z,17.71
2022-10-02T03:50:50.753Z,17.68
2022-10-02T03:53:24.520Z,17.64
2022-10-02T03:55:58.120Z,17.61
2022-10-02T03:58:25.748Z,17.61
2022-10-02T04:00:58.575Z,17.58
2022-10-02T04:03:38.541Z,17.60
2022-10-02T04:06:15.923Z,17.60
2022-10-02T04:08:46.172Z,17.58
2022-10-02T04:11:35.314Z,17.60
2022-10-02T04:14:16.122Z,17.64
2022-10-02T04:16:52.879Z,17.64
2022-10-02T04:19:26.847Z,17.65
2022-10-02T04:21:58.383Z,17.65
2022-10-02T04:24:47.685Z,17.63
2022-10-02T04:27:22.167Z,17.60
2022-10-02T04:30:04.712Z,17.58
2022-10-02T04:32:33.926Z,17.58
2022-10-02T04:35:00.877Z,17.57
2022-10-02T04:37:58.330Z,17.53
2022-10-02T04:40:34.120Z,17.48
2022-10-02T04:43:16.655Z,17.47
2022-10-02T04:46:02.064Z,17.40
2022-10-02T04:48:28.627Z,17.38
2022-10-02T04:51:12.494Z,17.40
2022-10-02T04:54:20.398Z,17.40
2022-10-02T04:56:59.311Z,17.37
2022-10-02T04:59:40.564Z,17.33
2022-10-02T05:02:28.627Z,17.37
2022-10-02T05:05:01.135Z,17.38
2022-10-02T05:07:51.444Z,17.34
2022-10-02T05:10:24.055Z,17.34
2022-10-02T05:13:33.274Z,17.33
2022-10-02T05:15:59.784Z,17.33
2022-10-02T05:18:52.941Z,17.34
2022-10-02T05:21:37.418Z,17.31
2022-10-02T05:24:09.966Z,17.27
2022-10-02T05:27:00.276Z,17.27
2022-10-02T05:29:45.004Z,17.22
2022-10-02T05:32:15.716Z,17.20
2022-10-02T05:35:16.158Z,17.20
2022-10-02T05:38:10.425Z,17.19
2022-10-02T05:40:46.750Z,17.16
2022-10-02T05:43:19.575Z,17.17
2022-10-02T05:45:58.692Z,17.16
2022-10-02T05:48:29.103Z,17.19
2022-10-02T05:51:02.450Z,17.20
2022-10-02T05:53:48.032Z,17.17
2022-10-02T05:56:25.487Z,17.19
2022-10-02T05:59:02.683Z,17.20
2022-10-02T06:01:36.319Z,17.20
2022-10-02T06:04:30.892Z,17.22
2022-10-02T06:07:03.793Z,17.23
2022-10-02T06:09:46.346Z,17.20
2022-10-02T06:12:26.873Z,17.23
2022-10-02T06:15:11.375Z,17.23
2022-10-02T06:17:43.945Z,17.26
2022-10-02T06:20:22.612Z,17.26
2022-10-02T06:22:59.370Z,17.27
2022-10-02T06:26:12.812Z,17.26
2022-10-02T06:28:44.055Z,17.27
2022-10-02T06:31:18.656Z,17.28
2022-10-02T06:33:45.447Z,17.33
2022-10-02T06:36:14.642Z,17.33
2022-10-02T06:39:03.122Z,17.37
2022-10-02T06:41:45.657Z,17.36
2022-10-02T06:44:38.493Z,17.38
2022-10-02T06:47:34.961Z,17.38
2022-10-02T06:50:20.174Z,17.41
2022-10-02T06:52:54.783Z,17.37
2022-10-02T06:55:51.638Z,17.40
2022-10-02T06:58:30.328Z,17.40
2022-10-02T07:01:04.556Z,17.44
2022-10-02T07:03:31.140Z,17.47
2022-10-02T07:06:31.580Z,17.51
2022-10-02T07:09:56.811Z,17.60
2022-10-02T07:12:35.407Z,17.67
2022-10-02T07:15:04.665Z,17.79
2022-10-02T07:17:31.175Z,17.88
2022-10-02T07:20:36.178Z,18.05
2022-10-02T07:23:43.376Z,18.27
2022-10-02T07:26:25.224Z,18.54
2022-10-02T07:29:13.595Z,18.74
2022-10-02T07:32:17.548Z,18.76
2022-10-02T07:34:46.708Z,18.84
2022-10-02T07:37:31.747Z,18.85
2022-10-02T07:40:32.372Z,18.85
2022-10-02T07:43:18.196Z,18.91
2022-10-02T07:46:00.754Z,18.87
2022-10-02T07:49:01.630Z,18.85
2022-10-02T07:51:47.348Z,18.82
2022-10-02T07:54:41.216Z,18.78
2022-10-02T07:57:27.626Z,18.69
2022-10-02T08:00:15.744Z,18.69
2022-10-02T08:02:48.979Z,18.72
2022-10-02T08:05:23.410Z,18.75
2022-10-02T08:07:54.356Z,18.78
2022-10-02T08:10:25.849Z,18.82
2022-10-02T08:13:01.880Z,18.88
2022-10-02T08:15:34.357Z,19.01
2022-10-02T08:18:35.129Z,19.11
2022-10-02T08:21:04.731Z,19.23
2022-10-02T08:23:44.078Z,19.31
2022-10-02T08:26:36.305Z,19.41
2022-10-02T08:29:12.018Z,19.43
2022-10-02T08:31:38.762Z,19.50
2022-10-02T08:34:23.067Z,19.46
2022-10-02T08:37:13.253Z,19.41
2022-10-02T08:40:17.063Z,19.45
2022-10-02T08:43:14.024Z,19.47
2022-10-02T08:46:06.734Z,19.57
2022-10-02T08:49:13.115Z,19.94
2022-10-02T08:52:04.600Z,20.23
2022-10-02T08:54:58.028Z,20.40
2022-10-02T08:57:57.121Z,20.57
2022-10-02T09:01:00.466Z,20.71
2022-10-02T09:03:58.068Z,20.77
2022-10-02T09:06:38.689Z,20.85
2022-10-02T09:09:40.683Z,20.85
2022-10-02T09:12:37.943Z,20.90
2022-10-02T09:15:35.147Z,21.19
2022-10-02T09:18:16.453Z,21.62
2022-10-02T09:20:55.011Z,21.96
2022-10-02T09:23:57.544Z,22.31
2022-10-02T09:26:59.227Z,22.62
2022-10-02T09:29:50.141Z,22.91
2022-10-02T09:32:42.431Z,23.14
2022-10-02T09:35:24.833Z,23.31
2022-10-02T09:38:39.116Z,23.49
2022-10-02T09:41:27.978Z,23.74
2022-10-02T09:43:54.466Z,23.94
2022-10-02T09:46:27.151Z,24.07
2022-10-02T09:49:13.158Z,24.24
2022-10-02T09:51:59.937Z,24.37
2022-10-02T09:54:45.018Z,24.51
2022-10-02T09:57:31.112Z,24.54
2022-10-02T10:00:06.898Z,24.68
2022-10-02T10:02:43.371Z,24.75
2022-10-02T10:05:35.661Z,24.51
2022-10-02T10:08:02.190Z,24.52
2022-10-02T10:11:04.093Z,24.42
2022-10-02T10:14:08.119Z,24.13
2022-10-02T10:16:56.905Z,23.92
2022-10-02T10:19:33.902Z,23.73
2022-10-02T10:22:39.003Z,23.54
2022-10-02T10:25:39.239Z,23.39
2022-10-02T10:28:33.869Z,23.28
2022-10-02T10:31:21.643Z,23.17
2022-10-02T10:34:16.243Z,23.03
2022-10-02T10:37:04.417Z,22.90
2022-10-02T10:39:40.316Z,22.87
2022-10-02T10:43:03.001Z,22.74
2022-10-02T10:45:47.115Z,22.74
2022-10-02T10:48:32.030Z,22.89
2022-10-02T10:51:01.554Z,23.06
2022-10-02T10:53:42.499Z,23.07
2022-10-02T10:56:09.088Z,23.06
2022-10-02T10:59:14.046Z,23.01
2022-10-02T11:02:04.611Z,22.91
2022-10-02T11:04:43.765Z,22.73
2022-10-02T11:07:10.307Z,22.64
2022-10-02T11:10:07.799Z,22.52
2022-10-02T11:12:56.392Z,22.51
2022-10-02T11:15:42.211Z,22.62
2022-10-02T11:18:15.200Z,22.77
2022-10-02T11:21:05.576Z,22.91
2022-10-02T11:23:58.739Z,23.03
2022-10-02T11:26:43.540Z,23.07
2022-10-02T11:29:43.038Z,23.06
2022-10-02T11:32:34.338Z,23.01
2022-10-02T11:35:13.038Z,23.00
2022-10-02T11:38:24.934Z,22.96
2022-10-02T11:41:26.655Z,22.91
2022-10-02T11:44:24.767Z,22.86
2022-10-02T11:47:10.623Z,22.94
2022-10-02T11:50:02.048Z,23.06
2022-10-02T11:52:48.405Z,23.14
2022-10-02T11:55:32.378Z,23.24
2022-10-02T11:58:45.171Z,23.29
2022-10-02T12:01:26.710Z,23.37
2022-10-02T12:04:01.738Z,23.39
2022-10-02T12:06:42.695Z,23.41
2022-10-02T12:09:20.953Z,23.29
2022-10-02T12:12:02.704Z,23.25
2022-10-02T12:14:44.687Z,23.25
2022-10-02T12:17:55.661Z,23.27
2022-10-02T12:20:59.783Z,23.27
2022-10-02T12:24:09.049Z,23.21
2022-10-02T12:27:00.495Z,23.19
2022-10-02T12:29:41.053Z,23.18
2022-10-02T12:32:27.471Z,23.12
2022-10-02T12:34:54.017Z,23.15
2022-10-02T12:37:42.908Z,23.15
2022-10-02T12:40:33.557Z,23.14
2022-10-02T12:43:02.745Z,23.11
2022-10-02T12:45:51.110Z,23.15
2022-10-02T12:48:57.217Z,23.17
2022-10-02T12:51:38.967Z,23.17
2022-10-02T12:54:21.074Z,23.21
2022-10-02T12:57:36.633Z,23.19
2022-10-02T13:00:20.046Z,23.21
2022-10-02T13:03:20.394Z,23.22
2022-10-02T13:06:01.969Z,23.24
2022-10-02T13:08:31.638Z,23.28
2022-10-02T13:11:07.096Z,23.28
2022-10-02T13:13:56.587Z,23.32
2022-10-02T13:16:50.129Z,23.32
2022-10-02T13:19:24.222Z,23.35
2022-10-02T13:22:23.900Z,23.38
2022-10-02T13:25:17.780Z,23.35
2022-10-02T13:28:16.060Z,23.37
2022-10-02T13:30:56.932Z,23.37
2022-10-02T13:33:38.706Z,23.35
2022-10-02T13:36:35.277Z,23.34
2022-10-02T13:39:07.976Z,23.34
2022-10-02T13:41:50.495Z,23.38
2022-10-02T13:44:30.769Z,23.39
2022-10-02T13:47:06.150Z,23.44
2022-10-02T13:49:38.769Z,23.46
2022-10-02T13:52:36.755Z,23.51
2022-10-02T13:55:21.863Z,23.51
2022-10-02T13:58:00.392Z,23.54
2022-10-02T14:00:39.143Z,23.54
2022-10-02T14:03:24.291Z,23.55
2022-10-02T14:05:58.717Z,23.55
2022-10-02T14:08:42.775Z,23.56
2022-10-02T14:11:09.319Z,23.56
2022-10-02T14:13:51.304Z,23.56
2022-10-02T14:16:45.629Z,23.59
2022-10-02T14:19:37.008Z,23.58
2022-10-02T14:22:35.026Z,23.59
2022-10-02T14:25:16.529Z,23.59
2022-10-02T14:27:57.517Z,23.62
2022-10-02T14:30:44.976Z,23.63
2022-10-02T14:33:20.752Z,23.63
2022-10-02T14:36:11.241Z,23.65
2022-10-02T14:38:52.980Z,23.61
2022-10-02T14:41:58.828Z,23.65
2022-10-02T14:44:50.036Z,23.65
2022-10-02T14:47:26.457Z,23.65
2022-10-02T14:50:14.522Z,23.69
2022-10-02T14:53:15.375Z,23.72
2022-10-02T14:56:15.016Z,23.74
2022-10-02T14:59:02.779Z,23.74
2022-10-02T15:01:31.450Z,23.72
2022-10-02T15:04:04.836Z,23.70
2022-10-02T15:06:43.334Z,23.70
2022-10-02T15:09:24.763Z,23.65
2022-10-02T15:12:34.241Z,23.67
2022-10-02T15:15:17.572Z,23.66
2022-10-02T15:18:03.381Z,23.66
2022-10-02T15:20:47.640Z,23.66
2022-10-02T15:23:24.569Z,23.70
2022-10-02T15:25:59.890Z,23.69
2022-10-02T15:29:04.995Z,23.67
2022-10-02T15:31:31.737Z,23.66
2022-10-02T15:34:10.336Z,23.65
2022-10-02T15:37:04.583Z,23.67
2022-10-02T15:39:57.123Z,23.65
2022-10-02T15:42:49.388Z,23.58
2022-10-02T15:45:19.189Z,23.56
2022-10-02T15:48:19.606Z,23.51
2022-10-02T15:51:10.982Z,23.49
2022-10-02T15:54:03.930Z,23.45
2022-10-02T15:56:48.793Z,23.42
2022-10-02T15:59:21.277Z,23.44
2022-10-02T16:02:06.645Z,23.44
2022-10-02T16:04:44.068Z,23.42
2022-10-02T16:07:26.258Z,23.41
2022-10-02T16:10:18.211Z,23.38
2022-10-02T16:12:56.957Z,23.37
2022-10-02T16:16:00.291Z,23.35
2022-10-02T16:18:47.019Z,23.31
2022-10-02T16:21:37.344Z,23.29
2022-10-02T16:24:07.645Z,23.28
2022-10-02T16:26:55.572Z,23.28
2022-10-02T16:29:50.366Z,23.24
2022-10-02T16:32:29.673Z,23.18
2022-10-02T16:35:21.089Z,23.17
2022-10-02T16:38:15.306Z,23.12
2022-10-02T16:40:51.110Z,23.08
2022-10-02T16:43:47.602Z,23.03
2022-10-02T16:46:21.328Z,23.04
2022-10-02T16:49:23.774Z,22.99
2022-10-02T16:52:15.336Z,22.97
2022-10-02T16:54:58.425Z,22.97
2022-10-02T16:57:49.866Z,22.93
2022-10-02T17:00:33.988Z,22.90
2022-10-02T17:03:31.827Z,22.87
2022-10-02T17:06:18.111Z,22.84
2022-10-02T17:08:58.463Z,22.81
2022-10-02T17:11:51.396Z,22.79
2022-10-02T17:14:36.907Z,22.77
2022-10-02T17:17:18.344Z,22.70
2022-10-02T17:20:04.868Z,22.67
2022-10-02T17:22:39.356Z,22.67
2022-10-02T17:25:27.221Z,22.66
2022-10-02T17:28:24.200Z,22.64
2022-10-02T17:31:16.362Z,22.62
2022-10-02T17:34:00.696Z,22.59
2022-10-02T17:36:41.548Z,22.57
2022-10-02T17:39:21.499Z,22.53
2022-10-02T17:41:54.034Z,22.52
2022-10-02T17:44:27.371Z,22.49
2022-10-02T17:47:21.332Z,22.46
2022-10-02T17:49:50.940Z,22.43
2022-10-02T17:52:43.825Z,22.39
2022-10-02T17:56:05.383Z,22.38
2022-10-02T17:58:35.613Z,22.34
2022-10-02T18:01:14.169Z,22.31
2022-10-02T18:04:22.258Z,22.29
2022-10-02T18:06:57.781Z,22.28
2022-10-02T18:09:38.645Z,22.28
2022-10-02T18:12:18.585Z,22.25
2022-10-02T18:15:11.430Z,22.24
2022-10-02T18:17:55.943Z,22.26
2022-10-02T18:20:35.776Z,22.24
2022-10-02T18:23:42.959Z,22.22
2022-10-02T18:26:18.928Z,22.21
2022-10-02T18:28:45.855Z,22.17
2022-10-02T18:31:55.239Z,22.15
2022-10-02T18:34:57.950Z,22.14
2022-10-02T18:37:50.249Z,22.11
2022-10-02T18:40:22.252Z,22.07
2022-10-02T18:43:11.131Z,22.05
2022-10-02T18:45:56.235Z,22.04
2022-10-02T18:48:47.620Z,22.01
2022-10-02T18:51:35.612Z,22.00
2022-10-02T18:54:15.352Z,21.98
2022-10-02T18:57:19.702Z,21.96
2022-10-02T19:00:26.391Z,21.93
2022-10-02T19:03:37.726Z,21.94
2022-10-02T19:06:20.443Z,21.93
2022-10-02T19:09:03.625Z,21.90
2022-10-02T19:11:32.591Z,21.87
2022-10-02T19:14:02.330Z,21.87
2022-10-02T19:16:33.089Z,21.86
2022-10-02T19:19:20.586Z,21.84
2022-10-02T19:21:48.545Z,21.81
2022-10-02T19:24:24.383Z,21.76
2022-10-02T19:26:58.098Z,21.77
2022-10-02T19:29:37.083Z,21.77
2022-10-02T19:32:18.772Z,21.74
2022-10-02T19:34:51.332Z,21.70
2022-10-02T19:37:18.946Z,21.70
2022-10-02T19:39:53.795Z,21.67
2022-10-02T19:42:32.366Z,21.66
2022-10-02T19:45:05.650Z,21.66
2022-10-02T19:47:45.651Z,21.63
2022-10-02T19:50:42.057Z,21.60
2022-10-02T19:53:24.462Z,21.57
2022-10-02T19:56:03.456Z,21.56
2022-10-02T19:58:40.560Z,21.54
2022-10-02T20:01:28.707Z,21.52
2022-10-02T20:03:58.443Z,21.49
2022-10-02T20:06:28.912Z,21.47
2022-10-02T20:09:03.643Z,21.45
2022-10-02T20:11:39.781Z,21.42
2022-10-02T20:14:13.492Z,21.39
2022-10-02T20:16:59.020Z,21.39
2022-10-02T20:19:28.813Z,21.33
2022-10-02T20:21:57.993Z,21.33
2022-10-02T20:24:45.385Z,21.35
2022-10-02T20:28:06.603Z,21.33
2022-10-02T20:30:43.186Z,21.33
2022-10-02T20:33:36.080Z,21.32
2022-10-02T20:36:17.279Z,21.31
2022-10-02T20:38:51.161Z,21.31
2022-10-02T20:41:23.554Z,21.28
2022-10-02T20:44:02.389Z,21.26
2022-10-02T20:46:47.692Z,21.24
2022-10-02T20:49:17.755Z,21.25
2022-10-02T20:52:02.840Z,21.24
2022-10-02T20:54:49.215Z,21.21
2022-10-02T20:58:00.302Z,21.21
2022-10-02T21:00:55.863Z,21.16
2022-10-02T21:03:36.776Z,21.16
2022-10-02T21:06:37.805Z,21.11
2022-10-02T21:09:50.373Z,21.05
2022-10-02T21:12:38.719Z,21.02
2022-10-02T21:15:42.341Z,20.98
2022-10-02T21:18:33.276Z,20.98
2022-10-02T21:21:38.314Z,20.95
2022-10-02T21:24:24.844Z,20.94
2022-10-02T21:27:10.127Z,20.88
2022-10-02T21:29:56.827Z,20.84
2022-10-02T21:33:00.578Z,20.81
2022-10-02T21:35:40.090Z,20.81
2022-10-02T21:38:16.108Z,20.83
2022-10-02T21:40:51.778Z,20.74
2022-10-02T21:43:55.703Z,20.73
2022-10-02T21:46:25.054Z,20.71
2022-10-02T21:49:10.800Z,20.68
2022-10-02T21:51:52.360Z,20.66
2022-10-02T21:54:24.962Z,20.60
2022-10-02T21:57:10.357Z,20.59
2022-10-02T21:59:58.083Z,20.56
2022-10-02T22:02:38.886Z,20.51
2022-10-02T22:05:20.546Z,20.53
2022-10-02T22:07:51.471Z,20.51
2022-10-02T22:10:47.285Z,20.47
2022-10-02T22:13:51.644Z,20.44
2022-10-02T22:16:29.338Z,20.40
2022-10-02T22:19:17.697Z,20.39
2022-10-02T22:22:11.331Z,20.37
2022-10-02T22:25:11.246Z,20.33
2022-10-02T22:28:03.569Z,20.32
2022-10-02T22:30:36.545Z,20.33
2022-10-02T22:33:15.164Z,20.29
2022-10-02T22:36:09.232Z,20.28
2022-10-02T22:38:37.904Z,20.25
2022-10-02T22:41:34.067Z,20.19
2022-10-02T22:44:12.253Z,20.15
2022-10-02T22:46:53.922Z,20.18
2022-10-02T22:49:31.388Z,20.13
2022-10-02T22:52:24.275Z,20.12
2022-10-02T22:54:59.962Z,20.12
2022-10-02T22:57:52.218Z,20.12
2022-10-02T23:00:20.703Z,20.09
2022-10-02T23:03:12.361Z,20.09
2022-10-02T23:05:54.187Z,20.09
2022-10-02T23:09:05.796Z,20.05
2022-10-02T23:12:06.464Z,20.04
2022-10-02T23:14:59.184Z,20.01
2022-10-02T23:17:53.484Z,19.99
2022-10-02T23:20:30.513Z,19.98
2022-10-02T23:23:22.333Z,19.95
2022-10-02T23:25:56.298Z,19.94
2022-10-02T23:28:30.561Z,19.94
2022-10-02T23:31:22.963Z,19.91
2022-10-02T23:34:14.609Z,19.88
2022-10-02T23:36:51.891Z,19.85
2022-10-02T23:39:25.196Z,19.87
2022-10-02T23:41:55.894Z,19.87
2022-10-02T23:44:41.591Z,19.85
2022-10-02T23:47:40.703Z,19.81
2022-10-02T23:50:34.896Z,19.79
2022-10-02T23:53:27.476Z,19.78
2022-10-02T23:56:12.069Z,19.78
2022-10-02T23:59:00.393Z,19.75
